Terminal Aerodrome Forecast
Issued by NWS

Home | Current Version | Previous Version | Text Only | Print | Product List | Glossary On
Versions: 1 2 3 4 5 6 7 8 9 10 11 12 13
840
FTUS45 KABQ 301736
TAFAEG
TAF
KAEG 301736Z 3018/3118 16010G18KT P6SM FEW050
     FM302300 17011KT P6SM VCTS BKN060CB
     FM310200 12009KT P6SM VCSH OVC070
     FM310600 VRB04KT P6SM BKN090=

USA.gov is the U.S. government's official web portal to all federal, state and local government web resources and services.